Time;durP1;ratioP1;P1;durP2;ratioP2;P2;SDS_P1;SDS_P2;PMS_P1;PMS_P2;Temp;Humidity;BMP_temperature;BMP_pressure;BME280_temperature;BME280_humidity;BME280_pressure;Samples;Min_cycle;Max_cycle;Signal;HPM_P1;HPM_P2
2022/04/17 00:01:46;;;;;;;;;;;4.60;99.90;;;;;;5111569;28;20302;-73
2022/04/17 00:04:14;;;;;;;;;;;4.50;99.90;;;;;;5093564;28;19911;-73
2022/04/17 00:06:40;;;;;;;;;;;4.60;99.90;;;;;;5093144;28;19912;-73
2022/04/17 00:09:05;;;;;;;;;;;4.60;99.90;;;;;;5093398;28;20367;-72
2022/04/17 00:11:32;;;;;;;;;;;4.60;99.90;;;;;;5111357;28;19916;-72
2022/04/17 00:13:59;;;;;;;;;;;4.60;99.90;;;;;;5112042;28;19911;-72
2022/04/17 00:16:25;;;;;;;;;;;4.60;99.90;;;;;;5093170;28;20007;-73
2022/04/17 00:18:50;;;;;;;;;;;4.60;99.90;;;;;;5111880;28;19959;-72
2022/04/17 00:21:16;;;;;;;;;;;4.60;99.90;;;;;;5111548;28;20155;-72
2022/04/17 00:23:44;;;;;;;;;;;4.60;99.90;;;;;;5111785;28;20248;-72
2022/04/17 00:26:10;;;;;;;;;;;4.60;99.90;;;;;;5111229;28;19912;-73
2022/04/17 00:28:35;;;;;;;;;;;4.60;99.90;;;;;;5111349;28;20378;-72
2022/04/17 00:31:01;;;;;;;;;;;4.50;99.90;;;;;;5111151;28;19911;-71
2022/04/17 00:33:26;;;;;;;;;;;4.50;99.90;;;;;;5093039;28;19959;-72
2022/04/17 00:35:52;;;;;;;;;;;4.60;99.90;;;;;;5111152;28;19912;-71
2022/04/17 00:38:17;;;;;;;;;;;4.60;99.90;;;;;;5111574;28;20420;-72
2022/04/17 00:40:43;;;;;;;;;;;4.60;99.90;;;;;;5096003;28;20315;-72
2022/04/17 00:43:29;;;;;;;;;;;4.50;99.90;;;;;;5115026;28;19981;-71
2022/04/17 00:45:54;;;;;;;;;;;4.50;99.90;;;;;;5115131;28;20491;-72
2022/04/17 00:48:20;;;;;;;;;;;4.50;99.90;;;;;;5115409;28;19925;-72
2022/04/17 00:50:46;;;;;;;;;;;4.60;99.90;;;;;;5114915;28;19973;-71
2022/04/17 00:53:12;;;;;;;;;;;4.60;99.90;;;;;;5114832;28;19920;-71
2022/04/17 00:55:38;;;;;;;;;;;4.60;99.90;;;;;;5114815;28;20014;-72
2022/04/17 00:58:03;;;;;;;;;;;4.60;99.90;;;;;;5115037;28;19966;-72
2022/04/17 01:00:29;;;;;;;;;;;4.60;99.90;;;;;;5114751;28;19992;-72
2022/04/17 01:02:54;;;;;;;;;;;4.60;99.90;;;;;;5096522;28;19911;-73
2022/04/17 01:05:20;;;;;;;;;;;4.60;99.90;;;;;;5114582;28;19915;-73
2022/04/17 01:07:46;;;;;;;;;;;4.50;99.90;;;;;;5114870;28;19919;-73
2022/04/17 01:10:12;;;;;;;;;;;4.50;99.90;;;;;;5114938;28;20402;-72
2022/04/17 01:12:37;;;;;;;;;;;4.50;99.90;;;;;;5114466;28;20258;-73
2022/04/17 01:15:03;;;;;;;;;;;4.50;99.90;;;;;;5096228;28;19912;-73
2022/04/17 01:17:29;;;;;;;;;;;4.40;99.90;;;;;;5114576;28;19919;-73
2022/04/17 01:19:54;;;;;;;;;;;4.40;99.90;;;;;;5114476;28;19919;-73
2022/04/17 01:22:20;;;;;;;;;;;4.50;99.90;;;;;;5114348;28;19915;-72
2022/04/17 01:27:30;;;;;;;;;;;4.40;99.90;;;;;;5114265;28;19919;-73
2022/04/17 01:29:55;;;;;;;;;;;4.40;99.90;;;;;;5095864;28;19912;-73
2022/04/17 01:32:21;;;;;;;;;;;4.40;99.90;;;;;;5114041;28;19919;-72
2022/04/17 01:34:47;;;;;;;;;;;4.40;99.90;;;;;;5114132;28;19918;-73
2022/04/17 01:37:13;;;;;;;;;;;4.60;99.90;;;;;;5113967;28;20256;-72
2022/04/17 01:39:39;;;;;;;;;;;4.40;99.90;;;;;;5095611;28;19923;-72
2022/04/17 01:42:05;;;;;;;;;;;4.40;99.90;;;;;;5114077;28;19912;-73
2022/04/17 01:44:30;;;;;;;;;;;4.50;99.90;;;;;;5113910;28;20012;-72
2022/04/17 01:46:56;;;;;;;;;;;4.50;99.90;;;;;;5113717;28;19961;-72
2022/04/17 01:49:23;;;;;;;;;;;4.50;99.90;;;;;;5113876;28;19916;-72
2022/04/17 01:51:51;;;;;;;;;;;4.50;99.90;;;;;;5112528;28;19918;-72
2022/04/17 01:54:18;;;;;;;;;;;4.50;99.90;;;;;;5095759;28;19959;-72
2022/04/17 01:56:44;;;;;;;;;;;4.50;99.90;;;;;;5113574;28;19915;-73
2022/04/17 01:59:11;;;;;;;;;;;4.40;99.90;;;;;;5114095;28;20302;-72
2022/04/17 02:01:38;;;;;;;;;;;4.40;99.90;;;;;;5113289;28;19912;-72
2022/04/17 02:04:04;;;;;;;;;;;4.20;99.90;;;;;;5113778;28;19923;-73
2022/04/17 02:06:30;;;;;;;;;;;4.00;99.90;;;;;;5113322;28;19966;-72
2022/04/17 02:08:55;;;;;;;;;;;3.80;99.90;;;;;;5113405;28;19923;-72
2022/04/17 02:11:22;;;;;;;;;;;3.60;99.90;;;;;;5094865;28;19912;-72
2022/04/17 02:13:49;;;;;;;;;;;3.50;99.90;;;;;;5113604;28;19911;-72
2022/04/17 02:16:19;;;;;;;;;;;3.50;99.90;;;;;;5112669;28;20215;-72
2022/04/17 02:18:45;;;;;;;;;;;3.50;99.90;;;;;;5113591;28;19911;-72
2022/04/17 02:21:13;;;;;;;;;;;3.50;99.90;;;;;;5113215;28;19926;-72
2022/04/17 02:23:39;;;;;;;;;;;3.50;99.90;;;;;;5113694;28;19912;-72
2022/04/17 02:26:05;;;;;;;;;;;3.50;99.90;;;;;;5113120;28;20394;-72
2022/04/17 02:28:34;;;;;;;;;;;3.50;99.90;;;;;;5113338;28;19912;-73
2022/04/17 02:31:00;;;;;;;;;;;3.60;99.90;;;;;;5112978;28;20403;-72
2022/04/17 02:33:26;;;;;;;;;;;3.60;99.90;;;;;;5094522;28;19916;-73
2022/04/17 02:35:52;;;;;;;;;;;3.60;99.90;;;;;;5112868;28;20010;-73
2022/04/17 02:38:18;;;;;;;;;;;3.60;99.90;;;;;;5113008;28;20310;-72
2022/04/17 02:40:43;;;;;;;;;;;3.50;99.90;;;;;;5113073;28;19977;-72
2022/04/17 02:43:09;;;;;;;;;;;3.60;99.90;;;;;;5094413;28;20343;-72
2022/04/17 02:45:34;;;;;;;;;;;3.60;99.90;;;;;;5112894;28;19919;-72
2022/04/17 02:48:00;;;;;;;;;;;3.50;99.90;;;;;;5112565;28;19911;-71
2022/04/17 02:50:25;;;;;;;;;;;3.50;99.90;;;;;;5112571;28;19911;-71
2022/04/17 02:52:53;;;;;;;;;;;3.40;99.90;;;;;;5112381;28;20275;-71
2022/04/17 02:55:19;;;;;;;;;;;3.40;99.90;;;;;;5112578;28;20006;-72
2022/04/17 02:57:45;;;;;;;;;;;3.40;99.90;;;;;;5094203;28;20336;-70
2022/04/17 03:00:11;;;;;;;;;;;3.50;99.90;;;;;;5094157;28;19919;-70
2022/04/17 03:05:36;;;;;;;;;;;3.40;99.90;;;;;;5112660;28;19922;-71
2022/04/17 03:08:07;;;;;;;;;;;3.40;99.90;;;;;;5094068;28;20323;-71
2022/04/17 03:10:33;;;;;;;;;;;3.40;99.90;;;;;;5112594;28;19992;-71
2022/04/17 03:12:58;;;;;;;;;;;3.50;99.90;;;;;;5093936;28;20458;-71
2022/04/17 03:15:24;;;;;;;;;;;3.60;99.90;;;;;;5093935;28;19915;-71
2022/04/17 03:17:49;;;;;;;;;;;3.60;99.90;;;;;;5112523;28;20356;-71
2022/04/17 03:20:15;;;;;;;;;;;3.70;99.90;;;;;;5093945;28;19926;-71
2022/04/17 03:22:41;;;;;;;;;;;3.70;99.90;;;;;;5093639;28;19984;-71
2022/04/17 03:25:07;;;;;;;;;;;3.70;99.90;;;;;;5112076;28;19923;-72
2022/04/17 03:27:33;;;;;;;;;;;3.60;99.90;;;;;;5093709;28;19914;-70
2022/04/17 03:29:59;;;;;;;;;;;3.50;99.90;;;;;;5093717;28;20300;-72
2022/04/17 03:32:24;;;;;;;;;;;3.50;99.90;;;;;;5112062;28;19916;-71
2022/04/17 03:34:50;;;;;;;;;;;3.40;99.90;;;;;;5093441;28;19980;-71
2022/04/17 03:37:16;;;;;;;;;;;3.40;99.90;;;;;;5111956;28;19994;-72
2022/04/17 03:39:42;;;;;;;;;;;3.50;99.90;;;;;;5111746;28;19916;-72
2022/04/17 03:42:08;;;;;;;;;;;3.60;99.90;;;;;;5111812;28;19938;-72
2022/04/17 03:44:33;;;;;;;;;;;3.40;99.90;;;;;;5111781;28;19916;-71
2022/04/17 03:46:59;;;;;;;;;;;4.80;99.90;;;;;;5111703;28;19908;-71
2022/04/17 03:49:25;;;;;;;;;;;3.60;99.90;;;;;;5093266;28;20443;-73
2022/04/17 03:51:50;;;;;;;;;;;3.60;99.90;;;;;;5111548;28;19918;-71
2022/04/17 03:54:16;;;;;;;;;;;3.60;99.90;;;;;;5093269;28;19916;-71
2022/04/17 03:56:43;;;;;;;;;;;3.50;99.90;;;;;;5111494;28;19973;-70
2022/04/17 03:59:09;;;;;;;;;;;4.10;99.90;;;;;;5111426;28;19919;-71
2022/04/17 04:01:35;;;;;;;;;;;3.30;99.90;;;;;;5111587;28;20375;-71
2022/04/17 04:04:00;;;;;;;;;;;3.20;99.90;;;;;;5093186;28;19908;-71
2022/04/17 04:06:26;;;;;;;;;;;3.20;99.90;;;;;;5111752;28;19915;-71
2022/04/17 04:08:51;;;;;;;;;;;3.00;99.90;;;;;;5111487;28;19920;-71
2022/04/17 04:11:17;;;;;;;;;;;2.90;99.90;;;;;;5093463;28;20329;-71
2022/04/17 04:13:43;;;;;;;;;;;2.70;99.90;;;;;;5111848;28;19912;-72
2022/04/17 04:16:09;;;;;;;;;;;2.70;99.90;;;;;;5115552;28;20268;-71
2022/04/17 04:18:34;;;;;;;;;;;2.60;99.90;;;;;;5115902;28;20278;-70
2022/04/17 04:21:00;;;;;;;;;;;2.60;99.90;;;;;;5097119;28;19916;-70
2022/04/17 04:23:26;;;;;;;;;;;4.00;99.90;;;;;;5115825;28;20343;-70
2022/04/17 04:25:51;;;;;;;;;;;2.70;99.90;;;;;;5115258;28;19927;-70
2022/04/17 04:31:11;;;;;;;;;;;2.80;99.90;;;;;;5115836;28;20381;-72
2022/04/17 04:33:37;;;;;;;;;;;2.80;99.90;;;;;;5115588;28;19915;-72
2022/04/17 04:36:04;;;;;;;;;;;2.90;99.90;;;;;;5115191;28;19916;-71
2022/04/17 04:38:30;;;;;;;;;;;2.90;99.90;;;;;;5115660;28;20342;-72
2022/04/17 04:40:56;;;;;;;;;;;2.80;99.90;;;;;;5096880;28;20002;-71
2022/04/17 04:43:21;;;;;;;;;;;2.90;99.90;;;;;;5096978;28;19907;-72
2022/04/17 04:51:15;;;;;;;;;;;2.80;99.90;;;;;;5115679;28;20007;-71
2022/04/17 04:53:41;;;;;;;;;;;2.80;99.90;;;;;;5115707;28;20025;-72
2022/04/17 04:56:07;;;;;;;;;;;2.70;99.90;;;;;;5097003;28;20359;-71
2022/04/17 04:58:32;;;;;;;;;;;2.70;99.90;;;;;;5096590;28;19915;-71
2022/04/17 05:00:58;;;;;;;;;;;2.70;99.90;;;;;;5114806;28;19916;-71
2022/04/17 05:03:24;;;;;;;;;;;2.70;99.90;;;;;;5115072;28;19969;-72
2022/04/17 05:05:49;;;;;;;;;;;2.70;99.90;;;;;;5114696;28;20367;-71
2022/04/17 05:08:14;;;;;;;;;;;2.70;99.90;;;;;;5114895;28;19996;-71
2022/04/17 05:10:40;;;;;;;;;;;2.80;99.90;;;;;;5096333;28;19935;-71
2022/04/17 05:13:05;;;;;;;;;;;2.90;99.90;;;;;;5114929;28;19916;-71
2022/04/17 05:15:31;;;;;;;;;;;3.00;99.90;;;;;;5096368;28;20428;-71
2022/04/17 05:17:56;;;;;;;;;;;3.10;99.90;;;;;;5114768;28;19915;-70
2022/04/17 05:20:22;;;;;;;;;;;3.10;99.90;;;;;;5114461;28;19916;-71
2022/04/17 05:22:56;;;;;;;;;;;3.20;99.90;;;;;;5114549;28;20354;-71
2022/04/17 05:25:22;;;;;;;;;;;3.20;99.90;;;;;;5096080;28;20446;-72
2022/04/17 05:27:48;;;;;;;;;;;3.20;99.90;;;;;;5114654;28;20318;-71
2022/04/17 05:30:14;;;;;;;;;;;3.20;99.90;;;;;;5114398;28;19920;-72
2022/04/17 05:32:39;;;;;;;;;;;3.20;99.90;;;;;;5095850;28;19969;-71
2022/04/17 05:35:05;;;;;;;;;;;3.10;99.90;;;;;;5095741;28;20340;-72
2022/04/17 05:37:30;;;;;;;;;;;3.10;99.90;;;;;;5095923;28;19932;-71
2022/04/17 05:39:56;;;;;;;;;;;2.80;99.90;;;;;;5095820;28;20026;-72
2022/04/17 05:42:21;;;;;;;;;;;2.60;99.90;;;;;;5095862;28;20002;-72
2022/04/17 05:44:48;;;;;;;;;;;2.50;99.90;;;;;;5113921;28;19912;-71
2022/04/17 05:47:14;;;;;;;;;;;2.40;99.90;;;;;;5113863;28;20013;-71
2022/04/17 05:49:39;;;;;;;;;;;2.30;99.90;;;;;;5113825;28;19955;-71
2022/04/17 05:52:05;;;;;;;;;;;2.10;99.90;;;;;;5113545;28;19926;-71
2022/04/17 05:54:30;;;;;;;;;;;2.00;99.90;;;;;;5113710;28;19912;-71
2022/04/17 05:56:56;;;;;;;;;;;2.00;99.90;;;;;;5113640;28;19915;-71
2022/04/17 05:59:22;;;;;;;;;;;1.90;99.90;;;;;;5095475;28;19918;-71
2022/04/17 06:01:47;;;;;;;;;;;1.90;99.90;;;;;;5113406;28;19922;-71
2022/04/17 06:04:13;;;;;;;;;;;1.90;99.90;;;;;;5113658;28;20365;-71
2022/04/17 06:06:38;;;;;;;;;;;1.90;99.90;;;;;;5113284;28;19912;-71
2022/04/17 06:09:04;;;;;;;;;;;1.90;99.90;;;;;;5113868;28;20022;-70
2022/04/17 06:11:30;;;;;;;;;;;1.90;99.90;;;;;;5094956;28;19912;-69
2022/04/17 06:13:55;;;;;;;;;;;2.10;99.90;;;;;;5113774;28;20351;-72
2022/04/17 06:16:21;;;;;;;;;;;2.30;99.90;;;;;;5095087;28;20004;-72
2022/04/17 06:18:46;;;;;;;;;;;2.40;99.90;;;;;;5095183;28;19966;-73
2022/04/17 06:21:12;;;;;;;;;;;2.50;99.90;;;;;;5113679;28;19919;-72
2022/04/17 06:23:37;;;;;;;;;;;2.60;99.90;;;;;;5113674;28;20372;-72
2022/04/17 06:26:03;;;;;;;;;;;2.60;99.90;;;;;;5113094;28;19912;-73
2022/04/17 06:28:28;;;;;;;;;;;2.60;99.90;;;;;;5094975;28;20274;-73
2022/04/17 06:30:54;;;;;;;;;;;2.60;99.90;;;;;;5113027;28;19915;-71
2022/04/17 06:33:19;;;;;;;;;;;2.50;99.90;;;;;;5113195;28;19922;-71
2022/04/17 06:35:45;;;;;;;;;;;2.40;99.90;;;;;;5112812;28;19922;-72
2022/04/17 06:38:10;;;;;;;;;;;2.30;99.90;;;;;;5094090;28;19923;-72
2022/04/17 06:40:36;;;;;;;;;;;2.30;99.90;;;;;;5094684;28;19941;-72
2022/04/17 06:43:07;;;;;;;;;;;2.40;99.90;;;;;;5112999;28;20188;-72
2022/04/17 06:45:34;;;;;;;;;;;2.50;99.90;;;;;;5112934;28;19911;-72
2022/04/17 06:48:15;;;;;;;;;;;2.70;99.90;;;;;;5113147;28;19912;-72
2022/04/17 06:50:42;;;;;;;;;;;2.90;99.90;;;;;;5094979;28;20268;-72
2022/04/17 06:53:07;;;;;;;;;;;3.20;99.90;;;;;;5112809;28;19916;-72
2022/04/17 06:55:33;;;;;;;;;;;3.30;99.90;;;;;;5112706;28;20272;-72
2022/04/17 06:57:58;;;;;;;;;;;3.30;99.90;;;;;;5112677;28;19998;-71
2022/04/17 07:00:24;;;;;;;;;;;3.30;99.90;;;;;;5112668;28;19978;-72
2022/04/17 07:02:50;;;;;;;;;;;3.30;99.90;;;;;;5112499;28;19918;-72
2022/04/17 07:05:16;;;;;;;;;;;3.20;99.90;;;;;;5094039;28;19911;-71
2022/04/17 07:07:41;;;;;;;;;;;3.40;99.90;;;;;;5112315;28;19911;-72
2022/04/17 07:10:07;;;;;;;;;;;3.50;99.90;;;;;;5112184;28;20417;-72
2022/04/17 07:12:34;;;;;;;;;;;3.60;99.90;;;;;;5112199;28;20339;-72
2022/04/17 07:15:00;;;;;;;;;;;3.50;99.90;;;;;;5112318;28;19947;-73
2022/04/17 07:17:36;;;;;;;;;;;3.50;99.90;;;;;;5112494;28;19912;-72
2022/04/17 07:20:05;;;;;;;;;;;3.40;99.90;;;;;;5112106;28;19912;-72
2022/04/17 07:22:35;;;;;;;;;;;3.30;99.90;;;;;;5112039;28;20304;-72
2022/04/17 07:25:01;;;;;;;;;;;3.30;99.90;;;;;;5093741;28;19911;-72
2022/04/17 07:27:27;;;;;;;;;;;3.30;99.90;;;;;;5093654;28;19912;-73
2022/04/17 07:29:53;;;;;;;;;;;3.20;99.90;;;;;;5112195;28;20317;-72
2022/04/17 07:32:19;;;;;;;;;;;3.00;99.90;;;;;;5111918;28;19919;-72
2022/04/17 07:34:44;;;;;;;;;;;2.90;99.90;;;;;;5111918;28;19923;-72
2022/04/17 07:37:10;;;;;;;;;;;2.80;99.90;;;;;;5111883;28;19912;-71
2022/04/17 07:39:35;;;;;;;;;;;2.70;99.90;;;;;;5111925;28;19920;-71
2022/04/17 07:42:01;;;;;;;;;;;2.70;99.90;;;;;;5111885;28;20002;-75
2022/04/17 07:44:29;;;;;;;;;;;2.70;99.90;;;;;;5111953;28;19986;-71
2022/04/17 07:46:55;;;;;;;;;;;2.80;99.90;;;;;;5093316;28;19954;-71
2022/04/17 07:49:21;;;;;;;;;;;2.80;99.90;;;;;;5110795;28;19966;-71
2022/04/17 07:51:46;;;;;;;;;;;2.70;99.90;;;;;;5111591;28;19915;-71
2022/04/17 07:54:12;;;;;;;;;;;2.80;99.90;;;;;;5112261;28;19960;-71
2022/04/17 07:56:37;;;;;;;;;;;2.90;99.90;;;;;;5093388;28;19935;-70
2022/04/17 07:59:04;;;;;;;;;;;3.00;99.90;;;;;;5093576;28;20271;-71
2022/04/17 08:01:32;;;;;;;;;;;3.30;99.90;;;;;;5093508;28;20014;-72
2022/04/17 08:03:58;;;;;;;;;;;3.50;99.90;;;;;;5112139;28;19911;-71
2022/04/17 08:06:24;;;;;;;;;;;3.90;99.90;;;;;;5111946;28;19919;-72
2022/04/17 08:08:52;;;;;;;;;;;4.20;99.90;;;;;;5112041;28;19953;-71
2022/04/17 08:11:18;;;;;;;;;;;4.40;99.90;;;;;;5111994;28;19916;-71
2022/04/17 08:13:46;;;;;;;;;;;4.50;99.90;;;;;;5093418;28;20386;-71
2022/04/17 08:16:12;;;;;;;;;;;4.50;99.90;;;;;;5093577;28;19911;-72
2022/04/17 08:18:37;;;;;;;;;;;4.60;99.90;;;;;;5093548;28;20279;-72
2022/04/17 08:21:04;;;;;;;;;;;4.60;99.90;;;;;;5112006;28;19911;-72
2022/04/17 08:23:29;;;;;;;;;;;4.60;99.90;;;;;;5112051;28;19912;-73
2022/04/17 08:25:55;;;;;;;;;;;4.50;99.90;;;;;;5111700;28;19923;-72
2022/04/17 08:28:20;;;;;;;;;;;4.60;99.90;;;;;;5111471;28;19916;-72
2022/04/17 08:30:46;;;;;;;;;;;4.70;99.90;;;;;;5111793;28;19916;-72
2022/04/17 08:33:12;;;;;;;;;;;4.80;99.90;;;;;;5111502;28;20395;-72
2022/04/17 08:35:37;;;;;;;;;;;4.80;99.90;;;;;;5111281;28;19911;-72
2022/04/17 08:38:03;;;;;;;;;;;4.80;99.90;;;;;;5093113;28;19960;-73
2022/04/17 08:40:29;;;;;;;;;;;4.60;99.90;;;;;;5111310;28;19999;-73
2022/04/17 08:42:56;;;;;;;;;;;4.60;99.90;;;;;;5111373;28;20337;-73
2022/04/17 08:45:21;;;;;;;;;;;4.60;99.90;;;;;;5092896;28;20285;-72
2022/04/17 08:47:47;;;;;;;;;;;4.60;99.90;;;;;;5092741;28;19918;-72
2022/04/17 08:50:14;;;;;;;;;;;4.80;99.90;;;;;;5092857;28;19959;-71
2022/04/17 08:52:41;;;;;;;;;;;5.40;99.90;;;;;;5111139;28;19915;-72
2022/04/17 08:55:07;;;;;;;;;;;6.40;99.90;;;;;;5110986;28;19912;-71
2022/04/17 08:57:32;;;;;;;;;;;7.20;99.90;;;;;;5111088;28;19919;-71
2022/04/17 08:59:58;;;;;;;;;;;7.80;99.90;;;;;;5111591;28;19962;-72
2022/04/17 09:02:24;;;;;;;;;;;8.20;99.90;;;;;;5114777;28;19916;-72
2022/04/17 09:04:50;;;;;;;;;;;8.10;99.90;;;;;;5114703;28;19923;-73
2022/04/17 09:07:15;;;;;;;;;;;7.80;99.90;;;;;;5114652;28;19908;-73
2022/04/17 09:09:51;;;;;;;;;;;7.40;99.90;;;;;;5114375;28;20460;-74
2022/04/17 09:12:22;;;;;;;;;;;6.80;99.90;;;;;;5114512;28;19916;-72
2022/04/17 09:14:47;;;;;;;;;;;6.30;99.90;;;;;;5114338;28;20268;-73
2022/04/17 09:17:13;;;;;;;;;;;6.10;99.90;;;;;;5114796;28;19989;-72
2022/04/17 09:19:38;;;;;;;;;;;6.10;99.90;;;;;;5114494;28;19919;-74
2022/04/17 09:22:12;;;;;;;;;;;6.10;99.90;;;;;;5114747;28;19945;-69
2022/04/17 09:24:39;;;;;;;;;;;6.30;99.90;;;;;;5114684;28;20528;-68
2022/04/17 09:27:05;;;;;;;;;;;6.40;99.90;;;;;;5114163;28;20006;-68
2022/04/17 09:29:33;;;;;;;;;;;6.50;99.90;;;;;;5114101;28;20460;-68
2022/04/17 09:32:04;;;;;;;;;;;6.40;99.90;;;;;;5113916;28;20062;-69
2022/04/17 09:34:52;;;;;;;;;;;6.50;99.90;;;;;;5114185;28;20359;-69
2022/04/17 09:37:19;;;;;;;;;;;6.70;99.90;;;;;;5113965;28;19911;-69
2022/04/17 09:39:45;;;;;;;;;;;7.00;99.90;;;;;;5113755;28;19916;-68
2022/04/17 09:42:10;;;;;;;;;;;7.10;99.90;;;;;;5113681;28;20007;-68
2022/04/17 09:44:46;;;;;;;;;;;7.20;99.90;;;;;;5104246;27;20460;-68
2022/04/17 09:47:16;;;;;;;;;;;7.30;99.90;;;;;;5133907;27;19915;-68
2022/04/17 09:50:14;;;;;;;;;;;7.40;99.90;;;;;;5114993;27;19960;-67
2022/04/17 09:52:41;;;;;;;;;;;7.40;99.90;;;;;;5077234;27;20024;-68
2022/04/17 09:55:07;;;;;;;;;;;7.20;99.90;;;;;;5127835;27;19912;-67
2022/04/17 09:57:34;;;;;;;;;;;7.10;99.90;;;;;;5113100;28;20245;-67
2022/04/17 10:00:10;;;;;;;;;;;7.00;99.90;;;;;;5113150;28;19918;-67
2022/04/17 10:02:36;;;;;;;;;;;7.00;99.90;;;;;;5094874;28;19916;-67
2022/04/17 10:05:01;;;;;;;;;;;6.90;99.90;;;;;;5114870;27;20284;-67
2022/04/17 10:07:27;;;;;;;;;;;7.00;99.90;;;;;;5134702;27;19964;-67
2022/04/17 10:09:53;;;;;;;;;;;7.10;99.90;;;;;;5134046;27;19957;-67
2022/04/17 10:12:19;;;;;;;;;;;7.20;99.90;;;;;;5133455;27;19920;-66
2022/04/17 10:14:52;;;;;;;;;;;7.40;99.90;;;;;;5134043;27;19916;-72
2022/04/17 10:17:21;;;;;;;;;;;7.30;99.90;;;;;;5134595;27;20417;-73
2022/04/17 10:19:48;;;;;;;;;;;7.30;99.90;;;;;;5116065;27;19915;-73
2022/04/17 10:22:14;;;;;;;;;;;7.50;99.90;;;;;;5133660;27;19973;-72
2022/04/17 10:24:44;;;;;;;;;;;7.70;99.90;;;;;;5133550;27;19912;-72
2022/04/17 10:27:13;;;;;;;;;;;7.70;99.90;;;;;;5133572;27;19943;-73
2022/04/17 10:29:43;;;;;;;;;;;7.50;99.90;;;;;;5133645;27;20100;-72
2022/04/17 10:32:15;;;;;;;;;;;7.50;99.90;;;;;;5133418;27;19971;-72
2022/04/17 10:35:06;;;;;;;;;;;7.40;99.90;;;;;;5133485;27;19955;-72
2022/04/17 10:37:55;;;;;;;;;;;7.50;99.90;;;;;;5114928;27;19915;-72
2022/04/17 10:40:22;;;;;;;;;;;7.60;99.90;;;;;;5133532;27;20415;-72
2022/04/17 10:42:59;;;;;;;;;;;8.60;99.90;;;;;;5133573;27;19918;-72
2022/04/17 10:45:25;;;;;;;;;;;7.80;99.90;;;;;;5133564;27;19960;-73
2022/04/17 10:48:20;;;;;;;;;;;7.70;99.90;;;;;;5133111;27;19977;-72
2022/04/17 10:50:48;;;;;;;;;;;7.50;99.90;;;;;;5110600;27;19931;-72
2022/04/17 10:53:26;;;;;;;;;;;7.40;99.90;;;;;;5132983;27;20290;-73
2022/04/17 10:56:03;;;;;;;;;;;7.30;99.90;;;;;;5133200;27;19911;-72
2022/04/17 10:58:37;;;;;;;;;;;7.20;99.90;;;;;;5133381;27;19990;-74
2022/04/17 11:01:03;;;;;;;;;;;7.10;99.90;;;;;;5133254;27;20002;-73
2022/04/17 11:03:28;;;;;;;;;;;6.90;99.90;;;;;;5133119;27;20354;-73
2022/04/17 11:08:44;;;;;;;;;;;6.80;99.90;;;;;;5133063;27;19919;-73
2022/04/17 11:11:10;;;;;;;;;;;6.90;99.90;;;;;;5114557;27;20009;-73
2022/04/17 11:13:35;;;;;;;;;;;6.90;99.90;;;;;;5132672;27;20312;-73
2022/04/17 11:16:06;;;;;;;;;;;6.80;99.90;;;;;;5132706;27;19963;-73
2022/04/17 11:18:31;;;;;;;;;;;6.80;99.90;;;;;;5114327;27;19915;-73
2022/04/17 11:20:58;;;;;;;;;;;6.80;99.90;;;;;;5114347;27;20270;-73
2022/04/17 11:23:42;;;;;;;;;;;6.90;99.90;;;;;;5132494;27;19912;-74
2022/04/17 11:26:09;;;;;;;;;;;6.90;99.90;;;;;;5132989;27;19921;-73
2022/04/17 11:28:35;;;;;;;;;;;6.90;99.90;;;;;;5132526;27;19916;-73
2022/04/17 11:31:01;;;;;;;;;;;7.00;99.90;;;;;;5132950;27;19925;-72
2022/04/17 11:33:27;;;;;;;;;;;7.10;99.90;;;;;;5132683;27;19915;-73
2022/04/17 11:35:53;;;;;;;;;;;7.20;99.90;;;;;;5113938;27;19994;-72
2022/04/17 11:38:18;;;;;;;;;;;7.10;99.90;;;;;;5132451;27;19916;-72
2022/04/17 11:40:47;;;;;;;;;;;7.00;99.90;;;;;;5132574;27;19912;-71
2022/04/17 11:43:14;;;;;;;;;;;7.10;99.90;;;;;;5132344;27;20387;-72
2022/04/17 11:45:40;;;;;;;;;;;7.10;99.90;;;;;;5132238;27;20294;-74
2022/04/17 11:48:07;;;;;;;;;;;7.20;99.90;;;;;;5132233;27;19956;-71
2022/04/17 11:50:33;;;;;;;;;;;7.10;99.90;;;;;;5132419;27;19930;-72
2022/04/17 11:53:00;;;;;;;;;;;7.10;99.90;;;;;;5132002;27;20323;-73
2022/04/17 11:55:30;;;;;;;;;;;7.00;99.90;;;;;;5132541;28;19915;-73
2022/04/17 11:57:56;;;;;;;;;;;6.70;99.90;;;;;;5113808;28;20390;-73
2022/04/17 12:00:22;;;;;;;;;;;6.60;99.90;;;;;;5132446;28;19917;-73
2022/04/17 12:02:53;;;;;;;;;;;6.50;99.90;;;;;;5131987;28;20010;-73
2022/04/17 12:05:20;;;;;;;;;;;6.40;99.90;;;;;;5132335;28;19917;-73
2022/04/17 12:07:54;;;;;;;;;;;6.40;99.90;;;;;;5131982;28;20279;-73
2022/04/17 12:10:21;;;;;;;;;;;6.50;99.90;;;;;;5132410;28;19965;-73
2022/04/17 12:12:47;;;;;;;;;;;6.50;99.90;;;;;;5131906;28;19938;-72
2022/04/17 12:15:14;;;;;;;;;;;6.60;99.90;;;;;;5132626;28;20347;-72
2022/04/17 12:17:40;;;;;;;;;;;6.80;99.90;;;;;;5132077;28;19948;-73
2022/04/17 12:20:10;;;;;;;;;;;6.80;99.90;;;;;;5113986;28;19954;-72
2022/04/17 12:22:36;;;;;;;;;;;6.90;99.90;;;;;;5131804;28;19998;-73
2022/04/17 12:25:03;;;;;;;;;;;6.90;99.90;;;;;;5132350;28;19918;-72
2022/04/17 12:27:28;;;;;;;;;;;6.90;99.90;;;;;;5131813;28;19912;-72
2022/04/17 12:29:56;;;;;;;;;;;6.80;99.90;;;;;;5132256;28;19911;-73
2022/04/17 12:32:23;;;;;;;;;;;6.80;99.90;;;;;;5113379;28;20279;-72
2022/04/17 12:34:57;;;;;;;;;;;7.30;99.90;;;;;;5113556;28;20358;-72
2022/04/17 12:37:31;;;;;;;;;;;6.70;99.90;;;;;;5135956;27;20275;-73
2022/04/17 12:40:06;;;;;;;;;;;6.70;99.90;;;;;;5136263;27;19912;-73
2022/04/17 12:42:32;;;;;;;;;;;6.70;99.90;;;;;;5117523;27;19911;-73
2022/04/17 12:44:57;;;;;;;;;;;6.80;99.90;;;;;;5136297;27;19912;-73
2022/04/17 12:47:23;;;;;;;;;;;6.80;99.90;;;;;;5135882;27;19919;-73
2022/04/17 12:49:48;;;;;;;;;;;6.90;99.90;;;;;;5117546;27;20406;-73
2022/04/17 12:52:21;;;;;;;;;;;7.20;99.90;;;;;;5135573;27;19915;-73
2022/04/17 12:54:46;;;;;;;;;;;7.20;99.90;;;;;;5135757;27;19915;-73
2022/04/17 12:57:13;;;;;;;;;;;7.20;99.90;;;;;;5135595;27;19918;-73
2022/04/17 12:59:42;;;;;;;;;;;7.20;99.90;;;;;;5135457;27;19911;-73
2022/04/17 13:02:18;;;;;;;;;;;7.20;99.90;;;;;;5135450;27;19957;-73
2022/04/17 13:04:44;;;;;;;;;;;7.20;99.90;;;;;;5135500;27;20279;-74
2022/04/17 13:07:11;;;;;;;;;;;7.30;99.90;;;;;;5135216;27;19915;-73
2022/04/17 13:09:36;;;;;;;;;;;7.40;99.90;;;;;;5116512;27;20009;-73
2022/04/17 13:12:02;;;;;;;;;;;7.60;99.90;;;;;;5135242;27;20026;-73
2022/04/17 13:14:28;;;;;;;;;;;7.70;99.90;;;;;;5134758;27;19918;-73
2022/04/17 13:16:57;;;;;;;;;;;7.50;99.90;;;;;;5134990;27;20385;-73
2022/04/17 13:19:24;;;;;;;;;;;7.40;99.90;;;;;;5135033;27;19918;-73
2022/04/17 13:21:50;;;;;;;;;;;7.30;99.90;;;;;;5135063;27;19916;-73
2022/04/17 13:24:16;;;;;;;;;;;7.10;99.90;;;;;;5135161;27;19911;-73
2022/04/17 13:26:42;;;;;;;;;;;6.90;99.90;;;;;;5134781;27;19960;-73
2022/04/17 13:29:08;;;;;;;;;;;6.70;99.90;;;;;;5134811;27;20006;-74
2022/04/17 13:31:35;;;;;;;;;;;6.60;99.90;;;;;;5116355;27;19990;-72
2022/04/17 13:34:01;;;;;;;;;;;6.50;99.90;;;;;;5116086;27;19912;-73
2022/04/17 13:36:26;;;;;;;;;;;6.50;99.90;;;;;;5134501;27;19965;-73
2022/04/17 13:38:52;;;;;;;;;;;6.50;99.90;;;;;;5115922;27;19998;-73
2022/04/17 13:41:17;;;;;;;;;;;6.70;99.90;;;;;;5134506;27;19918;-72
2022/04/17 13:43:43;;;;;;;;;;;6.80;99.90;;;;;;5134483;27;19952;-72
2022/04/17 13:46:08;;;;;;;;;;;6.90;99.90;;;;;;5134976;27;19919;-72
2022/04/17 13:48:35;;;;;;;;;;;7.00;99.90;;;;;;5134337;27;20290;-73
2022/04/17 13:51:05;;;;;;;;;;;7.10;99.90;;;;;;5135015;27;20255;-72
2022/04/17 13:53:34;;;;;;;;;;;7.10;99.90;;;;;;5115755;27;20303;-72
2022/04/17 13:56:00;;;;;;;;;;;6.80;99.90;;;;;;5116080;27;19938;-72
2022/04/17 13:58:26;;;;;;;;;;;6.70;99.90;;;;;;5134244;27;19916;-73
2022/04/17 14:00:53;;;;;;;;;;;6.70;99.90;;;;;;5134703;27;19917;-73
2022/04/17 14:03:19;;;;;;;;;;;6.70;99.90;;;;;;5134154;27;20414;-73
2022/04/17 14:05:46;;;;;;;;;;;6.60;99.90;;;;;;5115613;27;20006;-73
2022/04/17 14:08:12;;;;;;;;;;;6.60;99.90;;;;;;5133864;27;19961;-73
2022/04/17 14:10:37;;;;;;;;;;;6.60;99.90;;;;;;5134466;27;20347;-73
2022/04/17 14:13:03;;;;;;;;;;;6.60;99.90;;;;;;5115390;27;19919;-73
2022/04/17 14:15:28;;;;;;;;;;;6.50;99.90;;;;;;5134424;27;20274;-74
2022/04/17 14:17:54;;;;;;;;;;;6.30;99.90;;;;;;5134085;27;19923;-72
2022/04/17 14:20:19;;;;;;;;;;;6.20;99.90;;;;;;5134245;27;20249;-73
2022/04/17 14:22:45;;;;;;;;;;;6.20;99.90;;;;;;5115304;27;19919;-72
2022/04/17 14:25:10;;;;;;;;;;;6.10;99.90;;;;;;5134025;27;19915;-73
2022/04/17 14:27:36;;;;;;;;;;;6.10;99.90;;;;;;5133729;27;19912;-72
2022/04/17 14:30:01;;;;;;;;;;;6.10;99.90;;;;;;5133921;27;19911;-73
2022/04/17 14:32:27;;;;;;;;;;;6.00;99.90;;;;;;5133679;27;19920;-73
2022/04/17 14:34:52;;;;;;;;;;;6.00;99.90;;;;;;5115242;27;19912;-73
2022/04/17 14:37:18;;;;;;;;;;;6.10;99.90;;;;;;5133717;27;19911;-73
2022/04/17 14:39:43;;;;;;;;;;;6.00;99.90;;;;;;5133659;27;19918;-73
2022/04/17 14:42:09;;;;;;;;;;;6.00;99.90;;;;;;5133720;27;20432;-74
2022/04/17 14:44:36;;;;;;;;;;;6.00;99.90;;;;;;5114845;27;20290;-73
2022/04/17 14:47:01;;;;;;;;;;;5.80;99.90;;;;;;5114883;27;20038;-73